createdAt,value
2018-09-14T00:00:52.496Z,17.50
2018-09-14T00:03:20.849Z,17.50
2018-09-14T00:05:49.191Z,17.50
2018-09-14T00:08:17.543Z,17.50
2018-09-14T00:10:45.940Z,17.50
2018-09-14T00:13:14.292Z,17.50
2018-09-14T00:15:42.627Z,17.40
2018-09-14T00:18:10.975Z,17.50
2018-09-14T00:20:39.324Z,17.30
2018-09-14T00:23:07.646Z,17.30
2018-09-14T00:25:36.015Z,17.20
2018-09-14T00:28:04.511Z,17.30
2018-09-14T00:30:32.872Z,17.30
2018-09-14T00:33:01.251Z,17.40
2018-09-14T00:35:29.640Z,17.30
2018-09-14T00:37:58.015Z,17.20
2018-09-14T00:40:26.420Z,17.20
2018-09-14T00:42:54.772Z,17.10
2018-09-14T00:45:23.128Z,17.10
2018-09-14T00:47:51.505Z,17.00
2018-09-14T00:50:19.873Z,17.00
2018-09-14T00:52:48.197Z,17.10
2018-09-14T00:55:16.557Z,17.00
2018-09-14T00:57:44.911Z,17.10
2018-09-14T01:00:13.293Z,17.10
2018-09-14T01:02:41.667Z,17.10
2018-09-14T01:05:10.019Z,17.10
2018-09-14T01:07:38.384Z,17.10
2018-09-14T01:10:07.073Z,17.10
2018-09-14T01:12:35.449Z,17.10
2018-09-14T01:15:03.869Z,17.20
2018-09-14T01:17:32.244Z,17.20
2018-09-14T01:20:00.637Z,17.20
2018-09-14T01:22:29.010Z,17.20
2018-09-14T01:24:57.368Z,17.20
2018-09-14T01:27:25.707Z,17.20
2018-09-14T01:29:54.087Z,17.20
2018-09-14T01:32:22.441Z,17.20
2018-09-14T01:34:50.774Z,17.20
2018-09-14T01:37:19.089Z,17.10
2018-09-14T01:39:47.452Z,17.10
2018-09-14T01:42:15.780Z,17.10
2018-09-14T01:44:44.100Z,17.00
2018-09-14T01:47:12.739Z,17.00
2018-09-14T01:49:41.089Z,16.80
2018-09-14T01:52:09.464Z,16.70
2018-09-14T01:54:37.783Z,16.70
2018-09-14T01:57:06.305Z,16.70
2018-09-14T01:59:34.680Z,16.70
2018-09-14T02:02:03.041Z,16.70
2018-09-14T02:04:31.423Z,16.80
2018-09-14T02:06:59.795Z,16.80
2018-09-14T02:09:28.147Z,16.90
2018-09-14T02:11:56.572Z,16.90
2018-09-14T02:14:24.976Z,16.80
2018-09-14T02:16:53.304Z,16.80
2018-09-14T02:19:21.661Z,16.60
2018-09-14T02:21:50.038Z,16.50
2018-09-14T02:24:18.405Z,16.50
2018-09-14T02:26:46.735Z,16.40
2018-09-14T02:29:15.196Z,16.50
2018-09-14T02:31:43.552Z,16.40
2018-09-14T02:34:11.901Z,16.40
2018-09-14T02:36:40.258Z,16.30
2018-09-14T02:39:09.033Z,16.30
2018-09-14T02:41:37.385Z,16.30
2018-09-14T02:44:05.758Z,16.40
2018-09-14T02:46:34.103Z,16.50
2018-09-14T02:49:02.476Z,16.40
2018-09-14T02:51:30.811Z,16.30
2018-09-14T02:53:59.176Z,16.30
2018-09-14T02:56:27.515Z,16.30
2018-09-14T02:58:55.862Z,16.40
2018-09-14T03:01:24.340Z,16.40
2018-09-14T03:03:52.724Z,16.50
2018-09-14T03:06:21.105Z,16.70
2018-09-14T03:08:49.440Z,16.60
2018-09-14T03:11:17.810Z,16.60
2018-09-14T03:13:46.110Z,16.60
2018-09-14T03:16:14.457Z,16.70
2018-09-14T03:18:42.765Z,16.70
2018-09-14T03:21:11.185Z,16.70
2018-09-14T03:23:39.514Z,16.70
2018-09-14T03:26:07.856Z,16.80
2018-09-14T03:28:36.207Z,16.80
2018-09-14T03:31:04.604Z,16.70
2018-09-14T03:33:32.948Z,16.70
2018-09-14T03:36:01.313Z,16.80
2018-09-14T03:38:29.645Z,16.70
2018-09-14T03:40:58.044Z,16.70
2018-09-14T03:43:26.416Z,16.70
2018-09-14T03:45:54.746Z,16.80
2018-09-14T03:48:23.098Z,16.90
2018-09-14T03:50:51.428Z,16.90
2018-09-14T03:53:19.780Z,16.90
2018-09-14T03:55:48.113Z,16.90
2018-09-14T03:58:16.503Z,16.90
2018-09-14T04:00:44.836Z,16.80
2018-09-14T04:03:13.298Z,16.70
2018-09-14T04:05:41.624Z,16.70
2018-09-14T04:08:10.011Z,16.70
2018-09-14T04:10:38.344Z,16.70
2018-09-14T04:13:06.797Z,16.80
2018-09-14T04:15:35.180Z,16.70
2018-09-14T04:18:03.597Z,16.70
2018-09-14T04:20:31.956Z,16.70
2018-09-14T04:23:00.351Z,16.80
2018-09-14T04:25:28.718Z,16.70
2018-09-14T04:27:57.073Z,16.80
2018-09-14T04:30:25.498Z,16.70
2018-09-14T04:32:53.831Z,16.70
2018-09-14T04:35:22.195Z,16.70
2018-09-14T04:37:50.547Z,16.60
2018-09-14T04:40:18.912Z,16.60
2018-09-14T04:42:47.261Z,16.60
2018-09-14T04:45:15.616Z,16.60
2018-09-14T04:47:44.017Z,16.60
2018-09-14T04:50:12.365Z,16.60
2018-09-14T04:52:40.723Z,16.60
2018-09-14T04:55:09.113Z,16.70
2018-09-14T04:57:37.453Z,16.70
2018-09-14T05:00:05.865Z,16.70
2018-09-14T05:02:34.205Z,16.70
2018-09-14T05:05:02.535Z,16.60
2018-09-14T05:07:30.870Z,16.50
2018-09-14T05:09:59.211Z,16.60
2018-09-14T05:12:27.554Z,16.60
2018-09-14T05:14:55.930Z,16.70
2018-09-14T05:17:24.270Z,16.70
2018-09-14T05:19:52.647Z,16.70
2018-09-14T05:22:20.999Z,16.70
2018-09-14T05:24:49.336Z,16.70
2018-09-14T05:27:17.690Z,16.60
2018-09-14T05:29:46.308Z,16.70
2018-09-14T05:32:14.653Z,16.70
2018-09-14T05:34:42.973Z,16.60
2018-09-14T05:37:11.332Z,16.70
2018-09-14T05:39:39.651Z,16.70
2018-09-14T05:42:08.041Z,16.80
2018-09-14T05:44:36.403Z,16.60
2018-09-14T05:47:04.993Z,16.60
2018-09-14T05:49:33.350Z,16.70
2018-09-14T05:52:01.689Z,16.70
2018-09-14T05:54:30.253Z,16.70
2018-09-14T05:56:58.728Z,16.80
2018-09-14T05:59:27.132Z,16.80
2018-09-14T06:01:55.533Z,16.80
2018-09-14T06:04:23.895Z,16.80
2018-09-14T06:06:52.264Z,16.70
2018-09-14T06:09:20.579Z,16.70
2018-09-14T06:11:48.923Z,16.80
2018-09-14T06:14:17.272Z,16.80
2018-09-14T06:16:45.623Z,16.90
2018-09-14T06:19:13.957Z,16.90
2018-09-14T06:21:42.292Z,16.90
2018-09-14T06:24:10.725Z,16.80
2018-09-14T06:26:39.137Z,16.90
2018-09-14T06:29:07.484Z,16.80
2018-09-14T06:31:35.837Z,16.90
2018-09-14T06:34:04.180Z,16.90
2018-09-14T06:36:32.557Z,16.90
2018-09-14T06:39:00.916Z,17.00
2018-09-14T06:41:29.284Z,17.00
2018-09-14T06:43:57.627Z,17.00
2018-09-14T06:46:26.000Z,17.10
2018-09-14T06:48:54.365Z,17.10
2018-09-14T06:51:22.704Z,17.10
2018-09-14T06:53:51.041Z,17.20
2018-09-14T06:56:19.399Z,17.20
2018-09-14T06:58:47.737Z,17.30
2018-09-14T07:01:16.064Z,17.50
2018-09-14T07:03:44.480Z,17.50
2018-09-14T07:06:12.801Z,17.70
2018-09-14T07:08:41.190Z,17.70
2018-09-14T07:11:09.551Z,17.60
2018-09-14T07:13:37.886Z,17.50
2018-09-14T07:16:06.228Z,17.70
2018-09-14T07:18:34.789Z,17.80
2018-09-14T07:21:03.180Z,17.80
2018-09-14T07:23:31.508Z,17.90
2018-09-14T07:25:59.831Z,18.00
2018-09-14T07:28:28.233Z,18.10
2018-09-14T07:30:56.593Z,18.00
2018-09-14T07:33:24.957Z,18.00
2018-09-14T07:35:53.273Z,17.90
2018-09-14T07:38:21.648Z,17.80
2018-09-14T07:40:49.940Z,17.70
2018-09-14T07:43:18.300Z,17.70
2018-09-14T07:45:46.650Z,17.80
2018-09-14T07:48:14.983Z,17.80
2018-09-14T07:50:43.345Z,17.80
2018-09-14T07:53:11.711Z,17.90
2018-09-14T07:55:40.070Z,17.80
2018-09-14T07:58:08.396Z,17.70
2018-09-14T08:00:36.830Z,17.60
2018-09-14T08:03:05.215Z,17.60
2018-09-14T08:05:33.600Z,17.50
2018-09-14T08:08:01.977Z,17.30
2018-09-14T08:10:30.336Z,17.40
2018-09-14T08:12:58.685Z,17.60
2018-09-14T08:15:27.055Z,17.70
2018-09-14T08:17:55.414Z,17.80
2018-09-14T08:20:23.781Z,17.90
2018-09-14T08:22:52.161Z,18.00
2018-09-14T08:25:20.502Z,18.10
2018-09-14T08:27:50.755Z,18.10
2018-09-14T08:30:19.252Z,18.00
2018-09-14T08:32:47.709Z,18.00
2018-09-14T08:35:21.048Z,18.00
2018-09-14T08:37:49.423Z,18.10
2018-09-14T08:40:18.856Z,18.10
2018-09-14T08:42:47.197Z,18.20
2018-09-14T08:45:15.524Z,18.20
2018-09-14T08:47:43.961Z,18.20
2018-09-14T08:50:12.257Z,18.20
2018-09-14T08:52:40.625Z,18.20
2018-09-14T08:55:09.028Z,18.10
2018-09-14T08:57:37.363Z,18.20
2018-09-14T09:00:05.799Z,18.30
2018-09-14T09:02:35.672Z,18.40
2018-09-14T09:05:04.077Z,18.40
2018-09-14T09:07:32.423Z,18.40
2018-09-14T09:10:00.784Z,18.00
2018-09-14T09:12:29.169Z,17.80
2018-09-14T09:14:57.521Z,17.90
2018-09-14T09:17:25.920Z,18.00
2018-09-14T09:19:54.309Z,18.00
2018-09-14T09:22:22.667Z,18.10
2018-09-14T09:24:51.056Z,18.10
2018-09-14T09:27:19.420Z,18.10
2018-09-14T09:29:47.797Z,18.00
2018-09-14T09:32:16.124Z,17.90
2018-09-14T09:34:44.509Z,17.90
2018-09-14T09:37:12.841Z,17.90
2018-09-14T09:39:41.310Z,17.90
2018-09-14T09:42:09.687Z,18.00
2018-09-14T09:44:38.040Z,18.10
2018-09-14T09:47:06.471Z,17.90
2018-09-14T09:49:34.811Z,17.90
2018-09-14T09:52:03.233Z,17.70
2018-09-14T09:54:31.581Z,17.60
2018-09-14T09:57:00.117Z,17.50
2018-09-14T09:59:28.521Z,17.40
2018-09-14T10:02:02.273Z,17.40
2018-09-14T10:04:33.309Z,17.50
2018-09-14T10:07:01.731Z,17.60
2018-09-14T10:09:30.078Z,17.70
2018-09-14T10:11:58.417Z,17.90
2018-09-14T10:14:26.747Z,18.10
2018-09-14T10:16:55.117Z,18.20
2018-09-14T10:19:23.496Z,18.30
2018-09-14T10:21:51.943Z,18.60
2018-09-14T10:24:20.194Z,18.70
2018-09-14T10:26:48.602Z,18.90
2018-09-14T10:29:16.917Z,19.00
2018-09-14T10:31:45.271Z,19.00
2018-09-14T10:34:13.615Z,19.20
2018-09-14T10:36:42.003Z,19.00
2018-09-14T10:39:11.256Z,19.00
2018-09-14T10:41:39.588Z,19.00
2018-09-14T10:44:07.942Z,19.20
2018-09-14T10:46:36.359Z,19.30
2018-09-14T10:49:04.712Z,19.20
2018-09-14T10:51:33.062Z,19.00
2018-09-14T10:54:01.433Z,19.10
2018-09-14T10:56:29.818Z,19.40
2018-09-14T10:58:58.251Z,19.40
2018-09-14T11:01:27.806Z,19.40
2018-09-14T11:03:56.548Z,19.40
2018-09-14T11:06:25.050Z,19.50
2018-09-14T11:08:53.688Z,19.40
2018-09-14T11:11:22.044Z,19.40
2018-09-14T11:13:50.427Z,19.40
2018-09-14T11:16:18.819Z,19.40
2018-09-14T11:18:47.420Z,19.50
2018-09-14T11:21:15.700Z,19.40
2018-09-14T11:23:44.148Z,19.40
2018-09-14T11:26:12.576Z,19.30
2018-09-14T11:28:40.956Z,19.40
2018-09-14T11:31:09.326Z,19.30
2018-09-14T11:33:37.660Z,19.40
2018-09-14T11:36:06.156Z,19.70
2018-09-14T11:38:34.652Z,19.90
2018-09-14T11:41:02.836Z,20.30
2018-09-14T11:43:31.192Z,20.40
2018-09-14T11:45:59.583Z,20.70
2018-09-14T11:48:27.917Z,20.70
2018-09-14T11:50:56.301Z,20.80
2018-09-14T11:53:24.652Z,20.80
2018-09-14T11:55:53.021Z,20.90
2018-09-14T11:58:21.503Z,20.80
2018-09-14T12:00:50.264Z,20.80
2018-09-14T12:03:18.681Z,20.90
2018-09-14T12:05:47.125Z,21.00
2018-09-14T12:08:15.522Z,21.00
2018-09-14T12:10:44.060Z,21.00
2018-09-14T12:13:12.626Z,21.10
2018-09-14T12:15:41.101Z,21.20
2018-09-14T12:18:09.503Z,21.40
2018-09-14T12:20:38.003Z,21.60
2018-09-14T12:23:06.421Z,21.90
2018-09-14T12:25:37.319Z,22.00
2018-09-14T12:28:06.644Z,21.80
2018-09-14T12:30:35.045Z,21.90
2018-09-14T12:33:03.761Z,21.90
2018-09-14T12:35:32.186Z,22.10
2018-09-14T12:38:00.830Z,22.30
2018-09-14T12:40:29.344Z,22.20
2018-09-14T12:42:57.803Z,22.20
2018-09-14T12:45:26.338Z,22.90
2018-09-14T12:47:54.795Z,23.40
2018-09-14T12:50:23.208Z,23.80
2018-09-14T12:52:51.893Z,24.40
2018-09-14T12:55:20.389Z,24.80
2018-09-14T12:57:48.854Z,25.20
2018-09-14T13:00:17.464Z,24.80
2018-09-14T13:02:45.916Z,24.60
2018-09-14T13:05:14.661Z,24.30
2018-09-14T13:07:43.188Z,24.10
2018-09-14T13:10:11.743Z,23.70
2018-09-14T13:12:40.132Z,23.60
2018-09-14T13:15:08.563Z,23.70
2018-09-14T13:17:37.154Z,23.50
2018-09-14T13:20:06.075Z,23.50
2018-09-14T13:22:34.561Z,23.70
2018-09-14T13:25:03.230Z,23.90
2018-09-14T13:27:31.728Z,23.60
2018-09-14T13:30:00.225Z,23.10
2018-09-14T13:32:28.605Z,23.10
2018-09-14T13:34:56.978Z,22.90
2018-09-14T13:37:25.426Z,22.90
2018-09-14T13:39:53.812Z,23.10
2018-09-14T13:42:22.554Z,22.60
2018-09-14T13:44:51.142Z,22.70
2018-09-14T13:47:19.490Z,22.90
2018-09-14T13:49:47.913Z,23.10
2018-09-14T13:52:16.399Z,23.30
2018-09-14T13:54:44.942Z,23.30
2018-09-14T13:57:13.293Z,23.20
2018-09-14T13:59:41.661Z,23.10
2018-09-14T14:02:10.039Z,22.90
2018-09-14T14:04:38.380Z,22.70
2018-09-14T14:07:06.798Z,22.90
2018-09-14T14:09:35.100Z,23.00
2018-09-14T14:12:03.490Z,23.00
2018-09-14T14:14:31.835Z,23.40
2018-09-14T14:17:00.317Z,24.00
2018-09-14T14:19:28.568Z,24.30
2018-09-14T14:21:56.955Z,24.40
2018-09-14T14:24:25.362Z,24.70
2018-09-14T14:26:53.698Z,24.90
2018-09-14T14:29:22.070Z,25.20
2018-09-14T14:31:50.423Z,25.80
2018-09-14T14:34:18.768Z,26.60
2018-09-14T14:36:47.181Z,27.00
2018-09-14T14:39:15.575Z,27.10
2018-09-14T14:41:43.942Z,27.30
2018-09-14T14:44:12.269Z,27.30
2018-09-14T14:46:40.669Z,27.20
2018-09-14T14:49:09.027Z,27.50
2018-09-14T14:51:37.447Z,27.10
2018-09-14T14:54:05.785Z,27.10
2018-09-14T14:56:34.144Z,26.30
2018-09-14T14:59:02.542Z,26.30
2018-09-14T15:01:30.896Z,26.30
2018-09-14T15:03:59.255Z,26.20
2018-09-14T15:06:27.626Z,25.80
2018-09-14T15:08:55.989Z,25.40
2018-09-14T15:11:24.371Z,25.50
2018-09-14T15:13:52.729Z,25.90
2018-09-14T15:16:21.132Z,26.20
2018-09-14T15:18:49.485Z,26.60
2018-09-14T15:21:17.843Z,26.70
2018-09-14T15:23:46.192Z,26.50
2018-09-14T15:26:14.525Z,25.60
2018-09-14T15:28:42.909Z,24.50
2018-09-14T15:31:11.458Z,24.30
2018-09-14T15:33:39.883Z,24.20
2018-09-14T15:36:08.321Z,24.10
2018-09-14T15:38:36.656Z,23.80
2018-09-14T15:41:05.028Z,23.70
2018-09-14T15:43:33.362Z,23.70
2018-09-14T15:46:01.683Z,23.60
2018-09-14T15:48:30.041Z,23.50
2018-09-14T15:50:58.467Z,23.50
2018-09-14T15:53:26.829Z,23.60
2018-09-14T15:55:55.176Z,23.70
2018-09-14T15:58:23.504Z,23.50
2018-09-14T16:00:51.923Z,23.50
2018-09-14T16:03:20.269Z,23.40
2018-09-14T16:05:48.642Z,23.50
2018-09-14T16:08:17.003Z,23.30
2018-09-14T16:10:45.432Z,23.30
2018-09-14T16:13:13.848Z,23.30
2018-09-14T16:15:42.351Z,23.30
2018-09-14T16:18:10.687Z,23.30
2018-09-14T16:20:39.031Z,23.10
2018-09-14T16:23:07.476Z,23.00
2018-09-14T16:25:35.859Z,23.10
2018-09-14T16:28:04.199Z,22.90
2018-09-14T16:30:32.561Z,22.60
2018-09-14T16:33:00.972Z,22.50
2018-09-14T16:35:29.309Z,22.50
2018-09-14T16:37:57.660Z,22.50
2018-09-14T16:40:25.996Z,22.50
2018-09-14T16:42:54.368Z,22.50
2018-09-14T16:45:22.751Z,22.20
2018-09-14T16:47:51.146Z,22.40
2018-09-14T16:50:19.564Z,22.60
2018-09-14T16:52:47.875Z,22.50
2018-09-14T16:55:16.218Z,22.40
2018-09-14T16:57:44.604Z,22.20
2018-09-14T17:00:13.091Z,22.40
2018-09-14T17:02:41.699Z,22.40
2018-09-14T17:05:10.319Z,22.40
2018-09-14T17:07:39.414Z,22.30
2018-09-14T17:10:12.440Z,22.40
2018-09-14T17:12:41.122Z,22.30
2018-09-14T17:15:09.501Z,22.20
2018-09-14T17:17:38.378Z,22.00
2018-09-14T17:20:06.790Z,21.90
2018-09-14T17:22:35.392Z,21.90
2018-09-14T17:25:03.833Z,21.80
2018-09-14T17:27:32.241Z,21.70
2018-09-14T17:30:00.607Z,21.70
2018-09-14T17:32:29.002Z,21.60
2018-09-14T17:34:57.448Z,21.50
2018-09-14T17:37:25.959Z,21.60
2018-09-14T17:39:54.321Z,21.50
2018-09-14T17:42:22.688Z,21.40
2018-09-14T17:44:51.062Z,21.40
2018-09-14T17:47:19.426Z,21.20
2018-09-14T17:49:47.831Z,21.20
2018-09-14T17:52:16.202Z,21.20
2018-09-14T17:54:44.540Z,21.20
2018-09-14T17:57:12.902Z,21.20
2018-09-14T17:59:41.248Z,21.20
2018-09-14T18:02:09.678Z,21.10
2018-09-14T18:04:38.056Z,21.10
2018-09-14T18:07:06.709Z,21.10
2018-09-14T18:09:35.105Z,21.00
2018-09-14T18:12:03.509Z,21.00
2018-09-14T18:14:31.906Z,20.90
2018-09-14T18:17:00.368Z,20.80
2018-09-14T18:19:28.734Z,20.60
2018-09-14T18:21:57.135Z,20.50
2018-09-14T18:24:25.612Z,20.50
2018-09-14T18:26:54.006Z,20.40
2018-09-14T18:29:22.450Z,20.40
2018-09-14T18:31:50.764Z,20.40
2018-09-14T18:34:19.112Z,20.40
2018-09-14T18:36:47.475Z,20.30
2018-09-14T18:39:15.848Z,20.20
2018-09-14T18:41:44.225Z,20.20
2018-09-14T18:44:12.650Z,20.10
2018-09-14T18:46:41.107Z,20.00
2018-09-14T18:49:09.898Z,19.90
2018-09-14T18:51:38.284Z,19.80
2018-09-14T18:54:06.750Z,19.80
2018-09-14T18:56:35.128Z,19.70
2018-09-14T18:59:03.545Z,19.70
2018-09-14T19:01:31.916Z,19.70
2018-09-14T19:04:00.307Z,19.60
2018-09-14T19:06:28.750Z,19.60
2018-09-14T19:08:57.080Z,19.50
2018-09-14T19:11:25.544Z,19.40
2018-09-14T19:13:53.960Z,19.30
2018-09-14T19:16:22.800Z,19.30
2018-09-14T19:18:51.180Z,19.30
2018-09-14T19:21:19.579Z,19.20
2018-09-14T19:23:47.976Z,19.20
2018-09-14T19:26:17.282Z,19.20
2018-09-14T19:28:45.701Z,19.20
2018-09-14T19:31:14.140Z,19.10
2018-09-14T19:33:42.603Z,19.10
2018-09-14T19:36:11.088Z,19.10
2018-09-14T19:38:39.540Z,19.10
2018-09-14T19:41:07.960Z,19.10
2018-09-14T19:43:36.314Z,19.00
2018-09-14T19:46:04.821Z,19.00
2018-09-14T19:48:33.241Z,18.90
2018-09-14T19:51:01.587Z,18.90
2018-09-14T19:53:29.988Z,18.80
2018-09-14T19:55:58.448Z,18.80
2018-09-14T19:58:26.848Z,18.80
2018-09-14T20:00:55.313Z,18.70
2018-09-14T20:03:23.686Z,18.70
2018-09-14T20:05:52.254Z,18.70
2018-09-14T20:08:21.024Z,18.70
2018-09-14T20:10:49.520Z,18.60
2018-09-14T20:13:17.973Z,18.60
2018-09-14T20:15:46.609Z,18.60
2018-09-14T20:18:15.053Z,18.50
2018-09-14T20:20:43.363Z,18.50
2018-09-14T20:23:11.754Z,18.50
2018-09-14T20:25:40.098Z,18.40
2018-09-14T20:28:08.757Z,18.40
2018-09-14T20:30:37.457Z,18.40
2018-09-14T20:33:05.938Z,18.30
2018-09-14T20:35:34.367Z,18.30
2018-09-14T20:38:02.764Z,18.30
2018-09-14T20:40:31.110Z,18.20
2018-09-14T20:42:59.697Z,18.10
2018-09-14T20:45:28.137Z,18.10
2018-09-14T20:47:56.708Z,18.10
2018-09-14T20:50:25.305Z,18.00
2018-09-14T20:52:53.701Z,18.00
2018-09-14T20:55:22.049Z,17.90
2018-09-14T20:57:50.440Z,17.90
2018-09-14T21:00:23.871Z,17.90
2018-09-14T21:02:52.372Z,17.90
2018-09-14T21:05:20.756Z,17.80
2018-09-14T21:07:49.164Z,17.80
2018-09-14T21:10:17.553Z,17.80
2018-09-14T21:12:46.146Z,17.80
2018-09-14T21:15:14.521Z,17.80
2018-09-14T21:17:42.880Z,17.80
2018-09-14T21:20:11.284Z,17.80
2018-09-14T21:22:39.899Z,17.80
2018-09-14T21:25:08.280Z,17.70
2018-09-14T21:27:36.631Z,17.70
2018-09-14T21:30:07.018Z,17.80
2018-09-14T21:32:35.877Z,17.80
2018-09-14T21:35:04.248Z,17.80
2018-09-14T21:37:32.587Z,17.80
2018-09-14T21:40:00.975Z,17.80
2018-09-14T21:42:29.340Z,17.80
2018-09-14T21:44:57.870Z,17.80
2018-09-14T21:47:26.224Z,17.80
2018-09-14T21:49:54.623Z,17.90
2018-09-14T21:52:22.976Z,17.80
2018-09-14T21:54:51.336Z,17.80
2018-09-14T21:57:19.745Z,17.80
2018-09-14T21:59:48.120Z,17.80
2018-09-14T22:02:16.536Z,17.80
2018-09-14T22:04:44.960Z,17.70
2018-09-14T22:07:13.317Z,17.80
2018-09-14T22:09:41.698Z,17.80
2018-09-14T22:12:10.140Z,17.80
2018-09-14T22:14:38.552Z,17.80
2018-09-14T22:17:06.915Z,17.90
2018-09-14T22:19:35.247Z,17.80
2018-09-14T22:22:03.717Z,17.90
2018-09-14T22:24:32.007Z,17.90
2018-09-14T22:27:00.385Z,17.90
2018-09-14T22:29:28.719Z,17.90
2018-09-14T22:31:57.103Z,17.90
2018-09-14T22:34:25.441Z,17.90
2018-09-14T22:36:53.784Z,17.90
2018-09-14T22:39:22.207Z,17.90
2018-09-14T22:41:50.566Z,17.90
2018-09-14T22:44:18.884Z,17.90
2018-09-14T22:46:47.238Z,17.90
2018-09-14T22:49:15.616Z,18.00
2018-09-14T22:51:43.989Z,18.00
2018-09-14T22:54:12.380Z,18.00
2018-09-14T22:56:40.789Z,18.00
2018-09-14T22:59:09.184Z,18.00
2018-09-14T23:01:37.562Z,17.90
2018-09-14T23:04:05.891Z,18.00
2018-09-14T23:06:34.220Z,18.00
2018-09-14T23:09:02.628Z,18.00
2018-09-14T23:11:30.961Z,18.00
2018-09-14T23:13:59.347Z,18.00
2018-09-14T23:16:27.719Z,18.00
2018-09-14T23:18:56.068Z,18.00
2018-09-14T23:21:24.428Z,18.00
2018-09-14T23:23:52.759Z,18.00
2018-09-14T23:26:23.213Z,18.00
2018-09-14T23:28:51.567Z,18.00
2018-09-14T23:31:19.942Z,18.00
2018-09-14T23:33:48.367Z,18.00
2018-09-14T23:36:16.757Z,17.90
2018-09-14T23:38:45.110Z,17.90
2018-09-14T23:41:13.481Z,17.90
2018-09-14T23:43:41.824Z,18.00
2018-09-14T23:46:10.155Z,17.90
2018-09-14T23:48:38.480Z,17.90
2018-09-14T23:51:06.861Z,17.90
2018-09-14T23:53:35.180Z,17.80
2018-09-14T23:56:03.749Z,17.90
2018-09-14T23:58:32.071Z,17.80
